createdAt,value
2019-01-10T08:56:55.296Z,1020.82
2019-01-10T08:57:56.008Z,1020.85
2019-01-10T08:58:56.658Z,1020.80
2019-01-10T08:59:57.358Z,1020.80
2019-01-10T09:00:57.987Z,1020.81
2019-01-10T09:01:58.637Z,1020.81
2019-01-10T09:02:59.306Z,1020.78
2019-01-10T09:03:59.954Z,1020.86
2019-01-10T09:05:00.595Z,1020.88
2019-01-10T09:06:08.031Z,1020.91
2019-01-10T09:07:01.860Z,1020.88
2019-01-10T09:08:02.500Z,1020.89
2019-01-10T09:09:03.121Z,1020.91
2019-01-10T09:10:03.766Z,1020.92
2019-01-10T09:11:04.432Z,1020.89
2019-01-10T09:12:05.053Z,1020.90
2019-01-10T09:13:05.690Z,1020.91
2019-01-10T09:14:06.350Z,1020.93
2019-01-10T09:15:06.990Z,1020.94
2019-01-10T09:16:08.747Z,1020.94
2019-01-10T09:17:09.382Z,1020.91
2019-01-10T09:18:11.102Z,1020.94
2019-01-10T09:19:11.729Z,1020.98
2019-01-10T09:20:12.439Z,1020.96
2019-01-10T09:21:13.069Z,1020.90
2019-01-10T09:22:20.642Z,1020.95
2019-01-10T09:23:21.285Z,1020.96
2019-01-10T09:24:21.980Z,1020.95
2019-01-10T09:25:22.620Z,1020.96
2019-01-10T09:26:23.349Z,1020.94
2019-01-10T09:27:23.929Z,1021.02
2019-01-10T09:28:24.577Z,1021.01
2019-01-10T09:29:25.216Z,1021.02
2019-01-10T09:30:25.897Z,1021.02
2019-01-10T09:31:26.527Z,1021.05
2019-01-10T09:32:27.247Z,1021.10
2019-01-10T09:33:27.882Z,1021.04
2019-01-10T09:34:28.585Z,1021.05
2019-01-10T09:35:29.234Z,1021.05
2019-01-10T09:36:29.959Z,1021.10
2019-01-10T09:37:30.591Z,1021.03
2019-01-10T09:38:32.284Z,1021.02
2019-01-10T09:39:32.920Z,1021.07
2019-01-10T09:40:33.642Z,1021.07
2019-01-10T09:41:34.281Z,1021.05
2019-01-10T09:42:34.977Z,1021.03
2019-01-10T09:43:35.611Z,1021.02
2019-01-10T09:44:38.114Z,1021.06
2019-01-10T09:45:43.340Z,1021.07
2019-01-10T09:46:39.444Z,1021.06
2019-01-10T09:47:40.096Z,1021.06
2019-01-10T09:48:40.814Z,1021.15
2019-01-10T09:49:41.452Z,1021.13
2019-01-10T09:50:42.139Z,1021.13
2019-01-10T09:51:42.846Z,1021.12
2019-01-10T09:52:43.595Z,1021.09
2019-01-10T09:53:44.261Z,1021.10
2019-01-10T09:54:44.936Z,1021.09
2019-01-10T09:55:45.565Z,1021.09
2019-01-10T09:56:46.273Z,1021.15
2019-01-10T09:57:46.906Z,1021.15
2019-01-10T09:58:47.641Z,1021.15
2019-01-10T09:59:50.275Z,1021.16
2019-01-10T10:00:48.963Z,1021.15
2019-01-10T10:01:49.599Z,1021.14
2019-01-10T10:02:50.242Z,1021.13
2019-01-10T10:03:50.875Z,1021.16
2019-01-10T10:04:51.517Z,1021.16
2019-01-10T10:05:52.158Z,1021.18
2019-01-10T10:06:52.799Z,1021.12
2019-01-10T10:07:53.426Z,1021.19
2019-01-10T10:08:54.055Z,1021.13
2019-01-10T10:09:54.685Z,1021.20
2019-01-10T10:10:55.429Z,1021.22
2019-01-10T10:11:56.067Z,1021.20
2019-01-10T10:12:57.185Z,1021.26
2019-01-10T10:13:57.787Z,1021.22
2019-01-10T10:14:58.514Z,1021.17
2019-01-10T10:15:59.144Z,1021.18
2019-01-10T10:16:59.855Z,1021.17
2019-01-10T10:18:00.492Z,1021.18
2019-01-10T10:19:01.208Z,1021.14
2019-01-10T10:20:01.836Z,1021.13
2019-01-10T10:21:02.541Z,1021.18
2019-01-10T10:22:03.243Z,1021.15
2019-01-10T10:23:03.862Z,1021.17
2019-01-10T10:24:04.489Z,1021.19
2019-01-10T10:25:05.135Z,1021.17
2019-01-10T10:26:05.766Z,1021.15
2019-01-10T10:27:06.403Z,1021.13
2019-01-10T10:28:07.045Z,1021.14
2019-01-10T10:29:07.795Z,1021.13
2019-01-10T10:30:08.454Z,1021.08
2019-01-10T10:31:09.074Z,1021.11
2019-01-10T10:32:09.824Z,1021.16
2019-01-10T10:33:10.465Z,1021.13
2019-01-10T10:34:11.099Z,1021.12
2019-01-10T10:35:11.739Z,1021.10
2019-01-10T10:36:12.416Z,1021.08
2019-01-10T10:37:13.049Z,1021.17
2019-01-10T10:38:14.799Z,1021.21
2019-01-10T10:39:15.421Z,1021.22
2019-01-10T10:40:16.131Z,1021.23
2019-01-10T10:41:16.773Z,1021.21
2019-01-10T10:42:17.416Z,1021.18
2019-01-10T10:43:18.046Z,1021.16
2019-01-10T10:44:18.681Z,1021.19
2019-01-10T10:45:19.315Z,1021.20
2019-01-10T10:46:19.959Z,1021.26
2019-01-10T10:47:20.781Z,1021.24
2019-01-10T10:48:21.418Z,1021.22
2019-01-10T10:49:22.194Z,1021.20
2019-01-10T10:50:22.827Z,1021.18
2019-01-10T10:51:23.636Z,1021.18
2019-01-10T10:52:24.284Z,1021.19
2019-01-10T10:53:25.086Z,1021.27
2019-01-10T10:54:25.727Z,1021.32
2019-01-10T10:55:26.430Z,1021.35
2019-01-10T10:56:27.072Z,1021.29
2019-01-10T10:57:27.879Z,1021.25
2019-01-10T10:58:28.522Z,1021.20
2019-01-10T10:59:29.228Z,1021.20
2019-01-10T11:00:29.877Z,1021.22
2019-01-10T11:01:30.502Z,1021.20
2019-01-10T11:02:31.253Z,1021.21
2019-01-10T11:03:31.898Z,1021.32
2019-01-10T11:04:32.600Z,1021.27
2019-01-10T11:05:33.241Z,1021.32
2019-01-10T11:06:33.945Z,1021.34
2019-01-10T11:07:34.582Z,1021.33
2019-01-10T11:08:35.212Z,1021.36
2019-01-10T11:09:35.842Z,1021.38
2019-01-10T11:10:36.532Z,1021.36
2019-01-10T11:11:37.176Z,1021.30
2019-01-10T11:12:37.876Z,1021.29
2019-01-10T11:13:38.515Z,1021.24
2019-01-10T11:14:39.951Z,1021.23
2019-01-10T11:15:40.335Z,1021.24
2019-01-10T11:16:41.077Z,1021.25
2019-01-10T11:17:41.722Z,1021.24
2019-01-10T11:18:42.439Z,1021.26
2019-01-10T11:19:43.070Z,1021.26
2019-01-10T11:20:43.768Z,1021.28
2019-01-10T11:21:44.402Z,1021.29
2019-01-10T11:22:45.033Z,1021.29
2019-01-10T11:23:45.678Z,1021.33
2019-01-10T11:24:46.308Z,1021.30
2019-01-10T11:25:46.946Z,1021.27
2019-01-10T11:26:47.587Z,1021.28
2019-01-10T11:27:48.228Z,1021.29
2019-01-10T11:28:48.863Z,1021.24
2019-01-10T11:29:49.490Z,1021.19
2019-01-10T11:30:50.194Z,1021.18
2019-01-10T11:31:50.822Z,1021.22
2019-01-10T11:32:53.623Z,1021.23
2019-01-10T11:33:52.175Z,1021.24
2019-01-10T11:34:52.878Z,1021.25
2019-01-10T11:35:53.528Z,1021.26
2019-01-10T11:36:54.148Z,1021.28
2019-01-10T11:37:54.779Z,1021.27
2019-01-10T11:38:55.415Z,1021.27
2019-01-10T11:39:56.092Z,1021.26
2019-01-10T11:40:56.730Z,1021.22
2019-01-10T11:41:57.432Z,1021.18
2019-01-10T11:42:58.061Z,1021.21
2019-01-10T11:43:58.698Z,1021.19
2019-01-10T11:44:59.326Z,1021.16
2019-01-10T11:45:59.966Z,1021.15
2019-01-10T11:47:00.603Z,1021.14
2019-01-10T11:48:01.318Z,1021.13
2019-01-10T11:49:01.957Z,1021.12
2019-01-10T11:50:02.670Z,1021.07
2019-01-10T11:51:03.328Z,1021.07
2019-01-10T11:52:03.962Z,1021.08
2019-01-10T11:53:04.630Z,1021.03
2019-01-10T11:54:05.263Z,1021.07
2019-01-10T11:55:05.967Z,1021.07
2019-01-10T11:56:06.613Z,1021.05
2019-01-10T11:57:07.441Z,1021.03
2019-01-10T11:58:08.038Z,1021.04
2019-01-10T11:59:08.767Z,1021.04
2019-01-10T12:00:10.489Z,1021.00
2019-01-10T12:01:10.105Z,1020.99
2019-01-10T12:02:10.759Z,1021.03
2019-01-10T12:03:11.412Z,1020.98
2019-01-10T12:04:12.049Z,1020.99
2019-01-10T12:05:12.757Z,1020.99
2019-01-10T12:06:13.395Z,1021.00
2019-01-10T12:07:14.103Z,1020.98
2019-01-10T12:08:14.737Z,1020.96
2019-01-10T12:09:15.449Z,1020.94
2019-01-10T12:10:16.086Z,1020.91
2019-01-10T12:11:16.792Z,1020.92
2019-01-10T12:12:17.433Z,1020.88
2019-01-10T12:13:18.153Z,1020.89
2019-01-10T12:14:18.798Z,1020.92
2019-01-10T12:15:19.483Z,1020.88
2019-01-10T12:16:28.285Z,1020.89
2019-01-10T12:17:20.754Z,1020.91
2019-01-10T12:18:21.501Z,1020.89
2019-01-10T12:19:22.087Z,1020.89
2019-01-10T12:20:22.791Z,1020.93
2019-01-10T12:21:23.426Z,1020.91
2019-01-10T12:22:24.241Z,1020.90
2019-01-10T12:23:24.776Z,1020.87
2019-01-10T12:24:25.502Z,1020.90
2019-01-10T12:25:26.123Z,1020.82
2019-01-10T12:26:26.843Z,1020.81
2019-01-10T12:27:27.457Z,1020.80
2019-01-10T12:28:28.172Z,1020.80
2019-01-10T12:29:36.081Z,1020.75
2019-01-10T12:30:29.513Z,1020.71
2019-01-10T12:31:30.154Z,1020.70
2019-01-10T12:32:30.867Z,1020.72
2019-01-10T12:33:31.499Z,1020.69
2019-01-10T12:34:33.235Z,1020.72
2019-01-10T12:35:33.884Z,1020.67
2019-01-10T12:36:35.548Z,1020.69
2019-01-10T12:37:36.195Z,1020.72
2019-01-10T12:38:36.895Z,1020.71
2019-01-10T12:39:37.539Z,1020.73
2019-01-10T12:40:38.261Z,1020.73
2019-01-10T12:41:38.895Z,1020.75
2019-01-10T12:42:39.583Z,1020.72
2019-01-10T12:43:40.248Z,1020.68
2019-01-10T12:44:40.926Z,1020.68
2019-01-10T12:45:42.066Z,1020.68
2019-01-10T12:46:42.273Z,1020.71
2019-01-10T12:47:42.905Z,1020.72
2019-01-10T12:48:43.602Z,1020.68
2019-01-10T12:49:44.239Z,1020.71
2019-01-10T12:50:44.944Z,1020.72
2019-01-10T12:51:45.587Z,1020.76
2019-01-10T12:52:46.294Z,1020.74
2019-01-10T12:53:46.929Z,1020.75
2019-01-10T12:54:47.638Z,1020.74
2019-01-10T12:55:48.275Z,1020.76
2019-01-10T12:56:48.987Z,1020.72
2019-01-10T12:57:49.624Z,1020.74
2019-01-10T12:58:50.410Z,1020.70
2019-01-10T12:59:51.045Z,1020.72
2019-01-10T13:00:51.747Z,1020.73
2019-01-10T13:01:52.390Z,1020.75
2019-01-10T13:02:55.042Z,1020.76
2019-01-10T13:03:55.673Z,1020.77
2019-01-10T13:04:56.384Z,1020.78
2019-01-10T13:05:57.027Z,1020.79
2019-01-10T13:06:57.735Z,1020.75
2019-01-10T13:08:03.480Z,1020.72
2019-01-10T13:08:59.078Z,1020.74
2019-01-10T13:09:59.721Z,1020.74
2019-01-10T13:11:00.420Z,1020.78
2019-01-10T13:12:01.054Z,1020.75
2019-01-10T13:13:01.695Z,1020.69
2019-01-10T13:14:05.474Z,1020.68
2019-01-10T13:15:03.011Z,1020.69
2019-01-10T13:16:03.649Z,1020.70
2019-01-10T13:17:05.389Z,1020.69
2019-01-10T13:18:06.025Z,1020.73
2019-01-10T13:19:06.721Z,1020.72
2019-01-10T13:20:07.356Z,1020.72
2019-01-10T13:21:09.756Z,1020.72
2019-01-10T13:22:08.706Z,1020.73
2019-01-10T13:23:09.417Z,1020.76
2019-01-10T13:24:10.050Z,1020.79
2019-01-10T13:25:10.757Z,1020.79
2019-01-10T13:26:11.399Z,1020.77
2019-01-10T13:27:12.102Z,1020.74
2019-01-10T13:28:12.742Z,1020.73
2019-01-10T13:29:13.449Z,1020.75
2019-01-10T13:30:14.099Z,1020.74
2019-01-10T13:31:14.799Z,1020.79
2019-01-10T13:32:15.431Z,1020.78
2019-01-10T13:33:16.139Z,1020.78
2019-01-10T13:34:16.775Z,1020.78
2019-01-10T13:35:17.486Z,1020.75
2019-01-10T13:36:18.119Z,1020.72
2019-01-10T13:37:19.853Z,1020.74
2019-01-10T13:38:20.493Z,1020.74
2019-01-10T13:39:21.202Z,1020.76
2019-01-10T13:40:21.841Z,1020.79
2019-01-10T13:41:22.543Z,1020.77
2019-01-10T13:42:23.181Z,1020.72
2019-01-10T13:43:24.911Z,1020.76
2019-01-10T13:44:25.543Z,1020.77
2019-01-10T13:45:27.291Z,1020.74
2019-01-10T13:46:28.647Z,1020.76
2019-01-10T13:47:28.629Z,1020.81
2019-01-10T13:48:29.294Z,1020.75
2019-01-10T13:49:29.984Z,1020.71
2019-01-10T13:50:30.623Z,1020.77
2019-01-10T13:51:31.344Z,1020.74
2019-01-10T13:52:31.980Z,1020.76
2019-01-10T13:53:32.666Z,1020.77
2019-01-10T13:54:33.306Z,1020.75
2019-01-10T13:55:34.044Z,1020.74
2019-01-10T13:56:34.694Z,1020.75
2019-01-10T13:57:36.500Z,1020.77
2019-01-10T13:58:37.090Z,1020.72
2019-01-10T13:59:38.789Z,1020.71
2019-01-10T14:00:39.420Z,1020.71
2019-01-10T14:01:40.170Z,1020.75
2019-01-10T14:02:40.774Z,1020.72
2019-01-10T14:03:41.472Z,1020.68
2019-01-10T14:04:42.126Z,1020.70
2019-01-10T14:05:42.838Z,1020.69
2019-01-10T14:06:43.450Z,1020.70
2019-01-10T14:07:44.176Z,1020.71
2019-01-10T14:08:44.806Z,1020.68
2019-01-10T14:09:45.502Z,1020.71
2019-01-10T14:10:46.148Z,1020.71
2019-01-10T14:11:46.848Z,1020.65
2019-01-10T14:12:47.493Z,1020.71
2019-01-10T14:13:48.194Z,1020.67
2019-01-10T14:14:48.838Z,1020.63
2019-01-10T14:15:49.479Z,1020.68
2019-01-10T14:16:50.138Z,1020.69
2019-01-10T14:17:50.797Z,1020.68
2019-01-10T14:18:51.410Z,1020.69
2019-01-10T14:19:52.061Z,1020.66
2019-01-10T14:20:52.694Z,1020.64
2019-01-10T14:21:55.474Z,1020.65
2019-01-10T14:22:56.113Z,1020.63
2019-01-10T14:23:56.865Z,1020.61
2019-01-10T14:24:57.501Z,1020.58
2019-01-10T14:25:59.163Z,1020.57
2019-01-10T14:26:59.796Z,1020.59
2019-01-10T14:28:08.164Z,1020.59
2019-01-10T14:29:08.805Z,1020.58
2019-01-10T14:30:09.510Z,1020.55
2019-01-10T14:31:10.134Z,1020.58
2019-01-10T14:32:10.840Z,1020.58
2019-01-10T14:33:11.477Z,1020.54
2019-01-10T14:34:14.211Z,1020.57
2019-01-10T14:35:12.817Z,1020.55
2019-01-10T14:36:13.559Z,1020.50
2019-01-10T14:37:14.196Z,1020.50
2019-01-10T14:38:14.923Z,1020.52
2019-01-10T14:39:15.557Z,1020.46
2019-01-10T14:40:23.261Z,1020.56
2019-01-10T14:41:23.888Z,1020.53
2019-01-10T14:42:24.573Z,1020.56
2019-01-10T14:43:25.233Z,1020.57
2019-01-10T14:44:25.934Z,1020.54
2019-01-10T14:45:26.576Z,1020.56
2019-01-10T14:46:27.268Z,1020.54
2019-01-10T14:47:27.909Z,1020.57
2019-01-10T14:48:28.546Z,1020.57
2019-01-10T14:49:29.227Z,1020.60
2019-01-10T14:50:29.872Z,1020.56
2019-01-10T14:51:30.532Z,1020.59
2019-01-10T14:52:31.144Z,1020.57
2019-01-10T14:53:31.846Z,1020.57
2019-01-10T14:54:32.500Z,1020.55
2019-01-10T14:55:33.141Z,1020.54
2019-01-10T14:56:34.904Z,1020.47
2019-01-10T14:57:35.542Z,1020.49
2019-01-10T16:04:45.559Z,1020.57
2019-01-10T16:05:46.200Z,1020.56
2019-01-10T16:08:42.747Z,1020.55
2019-01-10T16:09:43.518Z,1020.58
2019-01-10T16:12:42.432Z,1020.54
2019-01-10T16:13:43.069Z,1020.57
2019-01-10T16:16:38.297Z,1020.59
2019-01-10T16:17:38.933Z,1020.58
2019-01-10T16:18:39.689Z,1020.59
2019-01-10T16:19:40.305Z,1020.61
2019-01-10T16:20:41.033Z,1020.62
2019-01-10T16:21:41.667Z,1020.63
2019-01-10T16:22:42.365Z,1020.56
2019-01-10T16:23:43.003Z,1020.59
2019-01-10T16:24:43.756Z,1020.63
2019-01-10T16:25:44.351Z,1020.65
2019-01-10T16:26:45.097Z,1020.72
2019-01-10T16:27:45.706Z,1020.70
2019-01-10T16:28:47.449Z,1020.68
2019-01-10T16:29:48.092Z,1020.62
2019-01-10T16:30:48.771Z,1020.60
2019-01-10T16:31:49.400Z,1020.58
2019-01-10T16:32:50.041Z,1020.65
2019-01-10T16:33:50.679Z,1020.62
2019-01-10T16:34:51.426Z,1020.62
2019-01-10T16:35:52.074Z,1020.59
2019-01-10T16:36:52.748Z,1020.55
2019-01-10T16:37:53.389Z,1020.59
2019-01-10T16:38:54.097Z,1020.58
2019-01-10T16:39:54.732Z,1020.62
2019-01-10T16:40:55.439Z,1020.62
2019-01-10T16:41:56.082Z,1020.59
2019-01-10T16:42:56.782Z,1020.62
2019-01-10T16:43:57.417Z,1020.60
2019-01-10T16:44:58.165Z,1020.61
2019-01-10T16:45:58.801Z,1020.60
2019-01-10T16:47:00.521Z,1020.60
2019-01-10T16:48:01.131Z,1020.58
2019-01-10T16:49:01.844Z,1020.60
2019-01-10T16:50:02.489Z,1020.59
2019-01-10T16:51:03.193Z,1020.64
2019-01-10T16:52:03.829Z,1020.60
2019-01-10T16:53:04.550Z,1020.57
2019-01-10T16:54:05.180Z,1020.60
2019-01-10T16:55:05.880Z,1020.59
2019-01-10T16:56:06.527Z,1020.60
2019-01-10T16:57:08.387Z,1020.66
2019-01-10T16:58:07.857Z,1020.64
2019-01-10T16:59:08.503Z,1020.67
2019-01-10T17:00:09.142Z,1020.62
2019-01-10T17:01:09.867Z,1020.64
2019-01-10T17:02:10.486Z,1020.71
2019-01-10T17:03:12.235Z,1020.71
2019-01-10T17:04:12.869Z,1020.66
2019-01-10T17:05:13.572Z,1020.69
2019-01-10T17:06:14.207Z,1020.72
2019-01-10T17:07:15.417Z,1020.70
2019-01-10T17:08:15.481Z,1020.72
2019-01-10T17:09:17.862Z,1020.74
2019-01-10T17:10:16.829Z,1020.77
2019-01-10T17:11:17.505Z,1020.75
2019-01-10T17:12:18.142Z,1020.75
2019-01-10T17:13:18.851Z,1020.74
2019-01-10T17:14:19.484Z,1020.68
2019-01-10T17:15:21.480Z,1020.74
2019-01-10T17:16:20.768Z,1020.74
2019-01-10T17:17:21.395Z,1020.72
2019-01-10T17:18:22.033Z,1020.70
2019-01-10T17:19:22.682Z,1020.69
2019-01-10T17:20:23.314Z,1020.74
2019-01-10T17:21:23.958Z,1020.70
2019-01-10T17:22:24.585Z,1020.69
2019-01-10T17:23:25.220Z,1020.67
2019-01-10T17:24:25.863Z,1020.66
2019-01-10T17:25:26.504Z,1020.65
2019-01-10T17:26:27.852Z,1020.66
2019-01-10T17:27:27.779Z,1020.65
2019-01-10T17:28:28.409Z,1020.64
2019-01-10T17:29:30.119Z,1020.65
2019-01-10T17:30:30.758Z,1020.66
2019-01-10T17:31:32.493Z,1020.60
2019-01-10T17:32:33.131Z,1020.56
2019-01-10T17:33:33.844Z,1020.58
2019-01-10T17:34:34.487Z,1020.61
2019-01-10T17:35:35.188Z,1020.62
2019-01-10T17:36:35.831Z,1020.64
2019-01-10T17:37:36.535Z,1020.64
2019-01-10T17:38:37.201Z,1020.60
2019-01-10T17:39:37.890Z,1020.65
2019-01-10T17:40:38.527Z,1020.60
2019-01-10T17:41:39.244Z,1020.60
2019-01-10T17:42:39.849Z,1020.62
2019-01-10T17:43:41.591Z,1020.61
2019-01-10T17:44:42.229Z,1020.63
2019-01-10T17:45:42.929Z,1020.62
2019-01-10T17:46:43.561Z,1020.61
2019-01-10T17:47:45.619Z,1020.64
2019-01-10T17:48:44.906Z,1020.60
2019-01-10T17:49:46.644Z,1020.63
2019-01-10T17:50:47.301Z,1020.64
2019-01-10T17:51:49.934Z,1020.66
2019-01-10T17:52:50.585Z,1020.63
2019-01-10T17:53:51.279Z,1020.62
2019-01-10T17:54:51.908Z,1020.62
2019-01-10T17:55:52.655Z,1020.64
2019-01-10T17:56:53.287Z,1020.62
2019-01-10T17:57:53.967Z,1020.66
2019-01-10T17:58:54.610Z,1020.64
2019-01-10T17:59:55.320Z,1020.64
2019-01-10T18:00:55.963Z,1020.63
2019-01-10T18:01:56.655Z,1020.66
2019-01-10T18:02:57.296Z,1020.66
2019-01-10T18:03:58.007Z,1020.65
2019-01-10T18:04:58.654Z,1020.68
2019-01-10T18:05:59.344Z,1020.69
2019-01-10T18:06:59.995Z,1020.66
2019-01-10T18:08:00.790Z,1020.66
2019-01-10T18:09:01.459Z,1020.68
2019-01-10T18:10:02.139Z,1020.68
2019-01-10T18:11:02.776Z,1020.64
2019-01-10T18:12:03.498Z,1020.66
2019-01-10T18:13:04.119Z,1020.63
2019-01-10T18:14:04.828Z,1020.66
2019-01-10T18:15:05.469Z,1020.67
2019-01-10T18:16:06.187Z,1020.65
2019-01-10T18:17:06.828Z,1020.64
2019-01-10T18:18:07.502Z,1020.64
2019-01-10T18:19:08.157Z,1020.66
2019-01-10T18:20:08.859Z,1020.66
2019-01-10T18:21:14.989Z,1020.69
2019-01-10T18:22:11.213Z,1020.71
2019-01-10T18:23:12.117Z,1020.64
2019-01-10T18:24:12.562Z,1020.69
2019-01-10T18:25:13.212Z,1020.69
2019-01-10T18:26:14.929Z,1020.74
2019-01-10T18:27:15.564Z,1020.77
2019-01-10T18:28:16.266Z,1020.77
2019-01-10T18:29:16.908Z,1020.74
2019-01-10T18:30:24.172Z,1020.70
2019-01-10T18:31:24.821Z,1020.71
2019-01-10T18:32:25.510Z,1020.68
2019-01-10T18:33:26.165Z,1020.71
2019-01-10T18:34:26.885Z,1020.68
2019-01-10T18:35:27.493Z,1020.64
2019-01-10T18:36:28.230Z,1020.66
2019-01-10T18:37:28.874Z,1020.70
2019-01-10T18:38:30.575Z,1020.65
2019-01-10T18:39:31.207Z,1020.62
2019-01-10T18:40:31.918Z,1020.61
2019-01-10T18:41:32.584Z,1020.61
2019-01-10T18:42:34.287Z,1020.66
2019-01-10T18:43:34.927Z,1020.71
2019-01-10T18:44:35.598Z,1020.65
2019-01-10T18:45:36.241Z,1020.65
2019-01-10T18:46:37.968Z,1020.66
2019-01-10T18:47:38.598Z,1020.65
2019-01-10T18:48:39.909Z,1020.63
2019-01-10T18:49:39.927Z,1020.68
2019-01-10T18:50:40.642Z,1020.65
2019-01-10T18:51:41.279Z,1020.65
2019-01-10T18:52:41.979Z,1020.63
2019-01-10T18:53:42.618Z,1020.69
2019-01-10T18:54:43.327Z,1020.66
2019-01-10T18:55:43.961Z,1020.65
2019-01-10T18:56:44.685Z,1020.66
2019-01-10T18:57:45.309Z,1020.64
2019-01-10T18:58:46.016Z,1020.57
2019-01-10T18:59:46.651Z,1020.59
2019-01-10T19:00:47.368Z,1020.62
2019-01-10T19:01:48.024Z,1020.61
2019-01-10T19:02:48.709Z,1020.59
2019-01-10T19:03:49.346Z,1020.63
2019-01-10T19:04:50.056Z,1020.62
2019-01-10T19:05:50.691Z,1020.64
2019-01-10T19:06:51.398Z,1020.58
2019-01-10T19:07:52.059Z,1020.63
2019-01-10T19:08:52.743Z,1020.61
2019-01-10T19:09:53.385Z,1020.57
2019-01-10T19:10:54.158Z,1020.58
2019-01-10T19:11:54.786Z,1020.58
2019-01-10T19:12:55.471Z,1020.60
2019-01-10T19:13:56.114Z,1020.59
2019-01-10T19:14:56.820Z,1020.62
2019-01-10T19:15:57.483Z,1020.64
2019-01-10T19:16:58.199Z,1020.63
2019-01-10T19:18:03.341Z,1020.67
2019-01-10T19:18:59.508Z,1020.62
2019-01-10T19:20:00.230Z,1020.63
2019-01-10T19:21:00.859Z,1020.63
2019-01-10T19:22:01.559Z,1020.65
2019-01-10T19:23:02.305Z,1020.67
2019-01-10T19:24:02.972Z,1020.61
2019-01-10T19:25:03.664Z,1020.65
2019-01-10T19:26:04.284Z,1020.64
2019-01-10T19:27:04.993Z,1020.62
2019-01-10T19:28:05.624Z,1020.64
2019-01-10T19:29:06.335Z,1020.64
2019-01-10T19:30:06.977Z,1020.63
2019-01-10T19:31:07.690Z,1020.62
2019-01-10T19:32:08.325Z,1020.62
2019-01-10T19:33:09.048Z,1020.62
2019-01-10T19:34:09.673Z,1020.61
2019-01-10T19:35:10.374Z,1020.64
2019-01-10T19:36:11.038Z,1020.60
2019-01-10T19:37:11.724Z,1020.62
2019-01-10T19:38:12.355Z,1020.62
2019-01-10T19:39:13.056Z,1020.58
2019-01-10T19:40:13.700Z,1020.55
2019-01-10T19:41:14.413Z,1020.60
2019-01-10T19:42:15.060Z,1020.61
2019-01-10T19:43:15.757Z,1020.65
2019-01-10T19:44:16.392Z,1020.66
2019-01-10T19:45:17.104Z,1020.69
2019-01-10T19:46:17.745Z,1020.67
2019-01-10T19:47:19.478Z,1020.62
2019-01-10T19:48:20.098Z,1020.62
2019-01-10T19:49:20.814Z,1020.62
2019-01-10T19:50:21.456Z,1020.61
2019-01-10T19:51:22.159Z,1020.65
2019-01-10T19:52:22.793Z,1020.67
2019-01-10T19:53:23.518Z,1020.68
2019-01-10T19:54:24.134Z,1020.67
2019-01-10T19:55:24.846Z,1020.65
2019-01-10T19:56:25.528Z,1020.67
2019-01-10T19:57:26.197Z,1020.62
2019-01-10T19:58:26.827Z,1020.64
2019-01-10T19:59:27.464Z,1020.61
2019-01-10T20:00:28.164Z,1020.62
2019-01-10T20:01:28.753Z,1020.67
2019-01-10T20:02:29.401Z,1020.67
2019-01-10T20:03:30.030Z,1020.71
2019-01-10T20:04:30.653Z,1020.66
2019-01-10T20:05:31.299Z,1020.66
2019-01-10T20:06:31.930Z,1020.66
2019-01-10T20:07:32.626Z,1020.70
2019-01-10T20:08:33.302Z,1020.65
2019-01-10T20:09:33.963Z,1020.65
2019-01-10T20:10:34.612Z,1020.67
2019-01-10T20:11:35.235Z,1020.69
2019-01-10T20:12:35.882Z,1020.62
2019-01-10T20:13:36.509Z,1020.63
2019-01-10T20:14:37.144Z,1020.62
2019-01-10T20:15:37.783Z,1020.63
2019-01-10T20:16:38.418Z,1020.61
2019-01-10T20:17:39.071Z,1020.62
2019-01-10T20:18:39.711Z,1020.63
2019-01-10T20:19:40.667Z,1020.61
2019-01-10T20:20:40.992Z,1020.61
2019-01-10T20:21:41.724Z,1020.61
2019-01-10T20:22:42.361Z,1020.64
2019-01-10T20:23:43.014Z,1020.61
2019-01-10T20:24:43.646Z,1020.61
2019-01-10T20:25:44.284Z,1020.62
2019-01-10T20:26:44.936Z,1020.61
2019-01-10T20:27:45.558Z,1020.63
2019-01-10T20:28:46.196Z,1020.62
2019-01-10T20:29:46.857Z,1020.64
2019-01-10T20:30:47.529Z,1020.66
2019-01-10T20:31:48.126Z,1020.68
2019-01-10T20:32:48.828Z,1020.67
2019-01-10T20:33:49.451Z,1020.65
2019-01-10T20:34:50.089Z,1020.64
2019-01-10T20:35:50.723Z,1020.59
2019-01-10T20:36:51.363Z,1020.59
2019-01-10T20:37:52.002Z,1020.57
2019-01-10T20:38:52.679Z,1020.59
2019-01-10T20:39:53.280Z,1020.57
2019-01-10T20:40:53.909Z,1020.55
2019-01-10T20:41:54.550Z,1020.57
2019-01-10T20:42:55.230Z,1020.60
2019-01-10T20:43:55.861Z,1020.63
2019-01-10T20:44:56.574Z,1020.59
2019-01-10T20:45:57.208Z,1020.63
2019-01-10T20:46:57.925Z,1020.63
2019-01-10T20:47:58.556Z,1020.61
2019-01-10T20:48:59.261Z,1020.62
2019-01-10T20:49:59.900Z,1020.62
2019-01-10T20:51:00.606Z,1020.61
2019-01-10T20:52:01.241Z,1020.63
2019-01-10T20:53:01.990Z,1020.66
2019-01-10T20:54:02.626Z,1020.66
2019-01-10T20:55:03.312Z,1020.71
2019-01-10T20:56:03.940Z,1020.71
2019-01-10T20:57:04.573Z,1020.71
2019-01-10T20:58:05.202Z,1020.74
2019-01-10T20:59:05.873Z,1020.71
2019-01-10T21:00:06.504Z,1020.72
2019-01-10T21:01:07.135Z,1020.68
2019-01-10T21:02:07.780Z,1020.70
2019-01-10T21:03:08.402Z,1020.71
2019-01-10T21:04:09.067Z,1020.69
2019-01-10T21:05:09.723Z,1020.70
2019-01-10T21:06:10.349Z,1020.66
2019-01-10T21:07:10.987Z,1020.69
2019-01-10T21:08:11.651Z,1020.70
2019-01-10T21:09:13.146Z,1020.68
2019-01-10T21:10:12.909Z,1020.67
2019-01-10T21:11:13.597Z,1020.69
2019-01-10T21:12:14.195Z,1020.63
2019-01-10T21:13:14.826Z,1020.64
2019-01-10T21:14:15.460Z,1020.61
2019-01-10T21:15:16.100Z,1020.59
2019-01-10T21:16:16.787Z,1020.60
2019-01-10T21:17:17.366Z,1020.64
2019-01-10T21:18:18.068Z,1020.64
2019-01-10T21:19:18.704Z,1020.61
2019-01-10T21:20:19.334Z,1020.65
2019-01-10T21:21:19.973Z,1020.61
2019-01-10T21:22:20.610Z,1020.63
2019-01-10T21:23:21.275Z,1020.69
2019-01-10T21:24:21.912Z,1020.67
2019-01-10T21:25:22.562Z,1020.72
2019-01-10T21:26:23.182Z,1020.66
2019-01-10T21:27:23.815Z,1020.65
2019-01-10T21:28:24.581Z,1020.71
2019-01-10T21:29:25.087Z,1020.70
2019-01-10T21:30:25.725Z,1020.67
2019-01-10T21:31:26.366Z,1020.73
2019-01-10T21:32:27.083Z,1020.65
2019-01-10T21:33:27.712Z,1020.68
2019-01-10T21:34:28.356Z,1020.66
2019-01-10T21:35:28.989Z,1020.72
2019-01-10T21:36:29.620Z,1020.70
2019-01-10T21:37:30.261Z,1020.70
2019-01-10T21:38:30.902Z,1020.71
2019-01-10T21:39:31.551Z,1020.70
2019-01-10T21:40:32.184Z,1020.69
2019-01-10T21:41:32.817Z,1020.66
2019-01-10T21:42:33.451Z,1020.69
2019-01-10T21:43:34.092Z,1020.67
2019-01-10T21:44:34.731Z,1020.68
2019-01-10T21:45:35.372Z,1020.66
2019-01-10T21:46:36.023Z,1020.62
2019-01-10T21:47:36.669Z,1020.66
2019-01-10T21:48:37.271Z,1020.62
2019-01-10T21:49:37.922Z,1020.64
2019-01-10T21:50:38.559Z,1020.62
2019-01-10T21:51:39.189Z,1020.60
2019-01-10T21:52:39.825Z,1020.63
2019-01-10T21:53:40.463Z,1020.62
2019-01-10T21:54:41.092Z,1020.58
2019-01-10T21:55:41.728Z,1020.62
2019-01-10T21:56:42.373Z,1020.63
2019-01-10T21:57:43.006Z,1020.59
2019-01-10T21:58:43.639Z,1020.57
2019-01-10T21:59:44.280Z,1020.56
2019-01-10T22:00:44.919Z,1020.55
2019-01-10T22:01:45.556Z,1020.53
2019-01-10T22:02:46.290Z,1020.49
2019-01-10T22:03:46.921Z,1020.56
2019-01-10T22:04:47.570Z,1020.56
2019-01-10T22:05:48.195Z,1020.56
2019-01-10T22:06:48.838Z,1020.53
2019-01-10T22:07:49.466Z,1020.50
2019-01-10T22:08:50.099Z,1020.52
2019-01-10T22:09:50.738Z,1020.52
2019-01-10T22:10:51.401Z,1020.51
2019-01-10T22:11:52.039Z,1020.49
2019-01-10T22:12:52.792Z,1020.50
2019-01-10T22:13:53.407Z,1020.49
2019-01-10T22:14:54.042Z,1020.45
2019-01-10T22:15:54.713Z,1020.47
2019-01-10T22:16:55.374Z,1020.47
2019-01-10T22:17:56.037Z,1020.47
2019-01-10T22:18:56.641Z,1020.47
2019-01-10T22:19:57.283Z,1020.44
2019-01-10T22:20:57.915Z,1020.45
2019-01-10T22:21:58.565Z,1020.44
2019-01-10T22:22:59.185Z,1020.49